createdAt,value
2017-09-27T00:00:58.241Z,57.30
2017-09-27T00:01:58.262Z,52.60
2017-09-27T00:02:58.280Z,53.70
2017-09-27T00:03:58.304Z,56.50
2017-09-27T00:04:58.333Z,67.30
2017-09-27T00:05:58.341Z,56.30
2017-09-27T00:06:58.352Z,56.10
2017-09-27T00:07:58.373Z,57.60
2017-09-27T00:08:58.390Z,55.60
2017-09-27T00:09:58.408Z,59.70
2017-09-27T00:10:58.427Z,61.30
2017-09-27T00:11:58.446Z,63.10
2017-09-27T00:12:58.467Z,58.70
2017-09-27T00:13:58.482Z,63.50
2017-09-27T00:14:58.503Z,57.20
2017-09-27T00:15:58.519Z,54.80
2017-09-27T00:16:58.539Z,56.90
2017-09-27T00:17:58.558Z,51.10
2017-09-27T00:18:58.575Z,53.50
2017-09-27T00:19:58.593Z,46.70
2017-09-27T00:20:58.614Z,56.10
2017-09-27T00:21:58.634Z,46.90
2017-09-27T00:22:58.650Z,49.20
2017-09-27T00:23:58.666Z,47.40
2017-09-27T00:24:58.683Z,55.60
2017-09-27T00:25:58.704Z,58.70
2017-09-27T00:26:58.725Z,51.20
2017-09-27T00:27:58.743Z,55.40
2017-09-27T00:28:58.761Z,52.20
2017-09-27T00:29:58.780Z,50.00
2017-09-27T00:30:58.796Z,49.10
2017-09-27T00:31:58.815Z,45.80
2017-09-27T00:32:58.832Z,49.90
2017-09-27T00:33:58.850Z,52.70
2017-09-27T00:34:58.869Z,49.70
2017-09-27T00:35:58.888Z,50.60
2017-09-27T00:36:58.909Z,48.10
2017-09-27T00:37:58.925Z,57.40
2017-09-27T00:38:58.945Z,57.00
2017-09-27T00:39:58.964Z,51.70
2017-09-27T00:40:58.981Z,52.40
2017-09-27T00:41:59.001Z,58.30
2017-09-27T00:42:59.019Z,58.10
2017-09-27T00:43:59.047Z,57.60
2017-09-27T00:44:59.055Z,59.20
2017-09-27T00:45:59.079Z,53.50
2017-09-27T00:46:59.092Z,53.60
2017-09-27T00:47:59.118Z,56.10
2017-09-27T00:48:59.133Z,53.00
2017-09-27T00:49:59.148Z,49.60
2017-09-27T00:50:59.166Z,51.60
2017-09-27T00:51:59.182Z,61.60
2017-09-27T00:52:59.206Z,62.20
2017-09-27T00:53:59.224Z,74.50
2017-09-27T00:54:59.240Z,89.00
2017-09-27T00:55:59.260Z,114.90
2017-09-27T00:56:59.280Z,96.40
2017-09-27T00:57:59.296Z,97.30
2017-09-27T00:58:59.315Z,81.70
2017-09-27T00:59:59.333Z,76.20
2017-09-27T01:00:59.356Z,72.80
2017-09-27T01:01:59.373Z,64.00
2017-09-27T01:02:59.389Z,72.40
2017-09-27T01:03:59.408Z,62.40
2017-09-27T01:04:59.426Z,63.80
2017-09-27T01:05:59.448Z,73.50
2017-09-27T01:06:59.465Z,75.70
2017-09-27T01:07:59.484Z,79.20
2017-09-27T01:08:59.501Z,93.10
2017-09-27T01:09:59.523Z,82.30
2017-09-27T01:10:59.539Z,95.10
2017-09-27T01:11:59.558Z,89.50
2017-09-27T01:12:59.581Z,99.20
2017-09-27T01:13:59.599Z,129.50
2017-09-27T01:14:59.615Z,117.80
2017-09-27T01:15:59.632Z,112.50
2017-09-27T01:16:59.652Z,133.30
2017-09-27T01:17:59.679Z,160.80
2017-09-27T01:18:59.690Z,189.00
2017-09-27T01:19:59.709Z,233.00
2017-09-27T01:20:59.727Z,230.80
2017-09-27T01:21:59.746Z,365.40
2017-09-27T01:22:59.766Z,497.20
2017-09-27T01:23:59.784Z,551.20
2017-09-27T01:24:59.802Z,545.90
2017-09-27T01:25:59.824Z,411.80
2017-09-27T01:26:59.838Z,435.20
2017-09-27T01:27:59.864Z,513.10
2017-09-27T01:28:59.878Z,696.50
2017-09-27T01:29:59.897Z,621.20
2017-09-27T01:30:59.918Z,506.40
2017-09-27T01:31:59.938Z,741.10
2017-09-27T01:32:59.959Z,889.40
2017-09-27T01:33:59.974Z,652.10
2017-09-27T01:34:59.992Z,640.20
2017-09-27T01:36:00.009Z,494.60
2017-09-27T01:37:00.029Z,563.60
2017-09-27T01:38:00.048Z,449.10
2017-09-27T01:39:00.073Z,358.70
2017-09-27T01:40:00.085Z,261.80
2017-09-27T01:41:00.104Z,184.30
2017-09-27T01:42:00.126Z,195.40
2017-09-27T01:43:00.142Z,285.80
2017-09-27T01:44:00.163Z,231.00
2017-09-27T01:45:00.193Z,367.30
2017-09-27T01:46:00.199Z,346.80
2017-09-27T01:47:00.218Z,518.20
2017-09-27T01:48:00.236Z,480.80
2017-09-27T01:49:00.256Z,396.30
2017-09-27T01:50:00.279Z,368.30
2017-09-27T01:51:00.294Z,471.90
2017-09-27T01:52:00.312Z,455.20
2017-09-27T01:53:00.332Z,315.30
2017-09-27T01:54:00.354Z,506.40
2017-09-27T01:55:00.368Z,357.00
2017-09-27T01:56:00.392Z,664.30
2017-09-27T01:57:00.409Z,829.10
2017-09-27T01:58:00.426Z,1014.80
2017-09-27T01:59:00.445Z,723.80
2017-09-27T02:00:00.463Z,705.40
2017-09-27T02:01:00.481Z,730.50
2017-09-27T02:02:00.500Z,642.70
2017-09-27T02:03:00.547Z,722.00
2017-09-27T02:04:00.536Z,604.50
2017-09-27T02:05:00.554Z,682.60
2017-09-27T02:06:00.574Z,686.30
2017-09-27T02:07:00.595Z,682.90
2017-09-27T02:08:00.613Z,577.10
2017-09-27T02:09:00.633Z,917.10
2017-09-27T02:10:00.651Z,764.00
2017-09-27T02:11:00.671Z,633.70
2017-09-27T02:12:00.688Z,611.80
2017-09-27T02:13:00.707Z,632.40
2017-09-27T02:14:00.727Z,589.30
2017-09-27T02:15:00.744Z,661.50
2017-09-27T02:16:00.763Z,603.40
2017-09-27T02:17:00.784Z,596.90
2017-09-27T02:18:00.803Z,579.20
2017-09-27T02:19:00.819Z,624.90
2017-09-27T02:20:00.843Z,699.40
2017-09-27T02:21:00.859Z,671.50
2017-09-27T02:22:00.877Z,904.30
2017-09-27T02:23:00.895Z,519.90
2017-09-27T02:24:00.914Z,628.20
2017-09-27T02:25:00.931Z,685.80
2017-09-27T02:26:00.953Z,697.80
2017-09-27T02:27:00.971Z,711.80
2017-09-27T02:28:00.988Z,802.00
2017-09-27T02:29:01.013Z,749.20
2017-09-27T02:30:01.029Z,614.20
2017-09-27T02:31:01.048Z,551.00
2017-09-27T02:32:01.066Z,525.40
2017-09-27T02:33:01.082Z,568.10
2017-09-27T02:34:01.103Z,468.80
2017-09-27T02:35:01.123Z,418.80
2017-09-27T02:36:01.138Z,366.40
2017-09-27T02:37:01.169Z,442.80
2017-09-27T02:38:01.180Z,499.50
2017-09-27T02:39:01.196Z,504.50
2017-09-27T02:40:01.213Z,783.00
2017-09-27T02:41:01.235Z,422.00
2017-09-27T02:42:01.253Z,451.50
2017-09-27T02:43:01.269Z,410.50
2017-09-27T02:44:01.289Z,394.90
2017-09-27T02:45:01.308Z,539.50
2017-09-27T02:46:01.335Z,530.00
2017-09-27T02:47:02.260Z,424.80
2017-09-27T02:48:01.369Z,466.80
2017-09-27T02:49:01.384Z,390.60
2017-09-27T02:50:01.403Z,333.00
2017-09-27T02:51:01.425Z,465.70
2017-09-27T02:52:01.440Z,490.50
2017-09-27T02:53:01.458Z,410.60
2017-09-27T02:54:01.476Z,366.40
2017-09-27T02:55:01.499Z,314.20
2017-09-27T02:56:01.515Z,349.10
2017-09-27T02:57:01.534Z,589.70
2017-09-27T02:58:01.554Z,399.10
2017-09-27T02:59:01.570Z,324.40
2017-09-27T03:00:01.591Z,310.50
2017-09-27T03:01:01.611Z,381.90
2017-09-27T03:02:01.630Z,312.90
2017-09-27T03:03:01.644Z,324.10
2017-09-27T03:04:01.667Z,320.50
2017-09-27T03:05:01.685Z,293.10
2017-09-27T03:06:01.704Z,250.20
2017-09-27T03:07:01.722Z,230.60
2017-09-27T03:08:01.744Z,218.20
2017-09-27T03:09:01.763Z,298.30
2017-09-27T03:10:01.780Z,288.60
2017-09-27T03:11:01.803Z,189.20
2017-09-27T03:12:01.816Z,196.80
2017-09-27T03:13:01.837Z,178.90
2017-09-27T03:14:01.861Z,211.80
2017-09-27T03:15:01.880Z,229.10
2017-09-27T03:16:01.895Z,442.50
2017-09-27T03:17:01.910Z,280.90
2017-09-27T03:18:01.935Z,411.40
2017-09-27T03:19:01.947Z,242.10
2017-09-27T03:20:01.965Z,238.10
2017-09-27T03:21:01.987Z,225.70
2017-09-27T03:22:02.004Z,188.20
2017-09-27T03:23:02.022Z,351.20
2017-09-27T03:24:02.041Z,408.70
2017-09-27T03:25:02.071Z,391.30
2017-09-27T03:26:02.079Z,234.10
2017-09-27T03:27:02.097Z,204.20
2017-09-27T03:28:02.116Z,221.40
2017-09-27T03:29:02.136Z,213.20
2017-09-27T03:30:02.155Z,223.00
2017-09-27T03:31:02.172Z,257.20
2017-09-27T03:32:02.192Z,393.40
2017-09-27T03:33:02.216Z,244.40
2017-09-27T03:34:02.229Z,239.10
2017-09-27T03:35:02.248Z,281.30
2017-09-27T03:36:02.267Z,314.60
2017-09-27T03:37:02.288Z,236.70
2017-09-27T03:38:02.306Z,272.50
2017-09-27T03:39:02.330Z,240.90
2017-09-27T03:40:02.343Z,292.40
2017-09-27T03:41:02.363Z,345.70
2017-09-27T03:42:02.379Z,348.00
2017-09-27T03:43:02.399Z,309.40
2017-09-27T03:44:02.418Z,356.10
2017-09-27T03:45:02.437Z,565.10
2017-09-27T03:46:02.457Z,480.60
2017-09-27T03:47:02.475Z,509.30
2017-09-27T03:48:02.490Z,389.50
2017-09-27T03:49:02.512Z,404.20
2017-09-27T03:50:02.529Z,218.00
2017-09-27T03:51:02.549Z,291.30
2017-09-27T03:52:02.569Z,306.90
2017-09-27T03:53:02.587Z,299.90
2017-09-27T03:54:02.605Z,330.20
2017-09-27T03:55:02.624Z,366.10
2017-09-27T03:56:02.641Z,227.10
2017-09-27T03:57:02.663Z,284.80
2017-09-27T03:58:02.681Z,288.40
2017-09-27T03:59:02.697Z,281.30
2017-09-27T04:00:02.718Z,216.30
2017-09-27T04:01:02.738Z,321.40
2017-09-27T04:02:02.759Z,298.20
2017-09-27T04:03:02.774Z,460.30
2017-09-27T04:04:02.794Z,455.60
2017-09-27T04:05:02.813Z,299.20
2017-09-27T04:06:02.829Z,270.70
2017-09-27T04:07:02.848Z,318.00
2017-09-27T04:08:02.868Z,251.90
2017-09-27T04:09:02.888Z,312.00
2017-09-27T04:10:02.904Z,425.90
2017-09-27T04:11:02.928Z,405.60
2017-09-27T04:12:02.941Z,626.00
2017-09-27T04:13:02.960Z,491.10
2017-09-27T04:14:02.982Z,419.80
2017-09-27T04:15:03.002Z,446.20
2017-09-27T04:16:03.017Z,653.60
2017-09-27T04:17:03.036Z,298.40
2017-09-27T04:18:03.068Z,302.40
2017-09-27T04:19:03.073Z,375.10
2017-09-27T04:20:03.094Z,410.90
2017-09-27T04:21:03.110Z,537.20
2017-09-27T04:22:03.136Z,403.00
2017-09-27T04:23:03.146Z,477.30
2017-09-27T04:24:03.165Z,535.30
2017-09-27T04:25:03.182Z,834.90
2017-09-27T04:26:03.203Z,747.60
2017-09-27T04:27:03.223Z,534.30
2017-09-27T04:28:03.241Z,490.90
2017-09-27T04:29:03.261Z,470.10
2017-09-27T04:30:03.280Z,466.70
2017-09-27T04:31:03.295Z,471.30
2017-09-27T04:32:03.316Z,467.60
2017-09-27T04:33:03.334Z,434.40
2017-09-27T04:34:03.351Z,610.70
2017-09-27T04:35:03.371Z,457.10
2017-09-27T04:36:03.388Z,370.40
2017-09-27T04:37:03.412Z,461.60
2017-09-27T04:38:03.429Z,426.40
2017-09-27T04:39:03.444Z,912.00
2017-09-27T04:40:03.462Z,690.20
2017-09-27T04:41:03.482Z,433.70
2017-09-27T04:42:03.501Z,636.50
2017-09-27T04:43:03.520Z,628.30
2017-09-27T04:44:03.545Z,466.30
2017-09-27T04:45:03.557Z,522.40
2017-09-27T04:46:03.574Z,527.60
2017-09-27T04:47:03.594Z,375.80
2017-09-27T04:48:03.613Z,360.40
2017-09-27T04:49:03.631Z,395.00
2017-09-27T04:50:03.648Z,361.00
2017-09-27T04:51:03.667Z,472.80
2017-09-27T04:52:03.687Z,349.80
2017-09-27T04:53:03.705Z,315.10
2017-09-27T04:54:03.731Z,350.40
2017-09-27T04:55:03.742Z,282.20
2017-09-27T04:56:03.760Z,258.80
2017-09-27T04:57:03.782Z,230.90
2017-09-27T04:58:03.798Z,379.70
2017-09-27T04:59:03.812Z,210.70
2017-09-27T05:00:03.832Z,272.80
2017-09-27T05:01:03.854Z,315.00
2017-09-27T05:02:03.873Z,369.80
2017-09-27T05:03:03.888Z,269.70
2017-09-27T05:04:03.909Z,322.60
2017-09-27T05:05:03.939Z,331.50
2017-09-27T05:06:03.947Z,237.40
2017-09-27T05:07:03.966Z,217.00
2017-09-27T05:08:03.982Z,208.90
2017-09-27T05:09:04.005Z,286.20
2017-09-27T05:10:04.019Z,269.50
2017-09-27T05:11:04.041Z,256.60
2017-09-27T05:12:04.055Z,227.80
2017-09-27T05:13:04.079Z,280.30
2017-09-27T05:14:04.096Z,397.40
2017-09-27T05:15:04.114Z,458.30
2017-09-27T05:16:04.129Z,432.40
2017-09-27T05:17:04.155Z,433.70
2017-09-27T05:18:04.175Z,375.80
2017-09-27T05:19:04.183Z,352.90
2017-09-27T05:20:04.206Z,344.00
2017-09-27T05:21:04.221Z,210.50
2017-09-27T05:22:04.240Z,206.80
2017-09-27T05:23:04.259Z,279.60
2017-09-27T05:24:04.276Z,226.60
2017-09-27T05:25:04.298Z,254.90
2017-09-27T05:26:04.315Z,174.00
2017-09-27T05:27:04.335Z,232.40
2017-09-27T05:28:04.352Z,175.40
2017-09-27T05:29:04.369Z,242.80
2017-09-27T05:30:04.389Z,222.70
2017-09-27T05:31:04.408Z,275.90
2017-09-27T05:32:04.430Z,301.70
2017-09-27T05:33:04.446Z,291.80
2017-09-27T05:34:04.464Z,276.10
2017-09-27T05:35:04.480Z,302.10
2017-09-27T05:36:04.499Z,309.90
2017-09-27T05:37:04.519Z,292.90
2017-09-27T05:38:04.536Z,311.80
2017-09-27T05:39:04.556Z,374.70
2017-09-27T05:40:04.575Z,308.80
2017-09-27T05:41:04.590Z,166.90
2017-09-27T05:42:04.617Z,158.90
2017-09-27T05:43:04.635Z,180.20
2017-09-27T05:44:04.652Z,221.80
2017-09-27T05:45:04.667Z,342.90
2017-09-27T05:46:04.685Z,274.30
2017-09-27T05:47:04.705Z,249.60
2017-09-27T05:48:04.725Z,271.30
2017-09-27T05:49:04.741Z,309.20
2017-09-27T05:50:04.761Z,284.00
2017-09-27T05:51:04.777Z,195.40
2017-09-27T05:52:04.794Z,289.30
2017-09-27T05:53:04.815Z,373.90
2017-09-27T05:54:04.834Z,281.20
2017-09-27T05:55:04.851Z,284.50
2017-09-27T05:56:04.871Z,263.70
2017-09-27T05:57:04.890Z,245.40
2017-09-27T05:58:04.910Z,206.80
2017-09-27T05:59:04.930Z,241.10
2017-09-27T06:00:04.944Z,216.50
2017-09-27T06:01:04.963Z,251.60
2017-09-27T06:02:04.981Z,236.40
2017-09-27T06:03:05.000Z,253.90
2017-09-27T06:04:05.019Z,243.50
2017-09-27T06:05:05.040Z,305.40
2017-09-27T06:06:05.058Z,258.80
2017-09-27T06:07:05.076Z,197.10
2017-09-27T06:08:05.096Z,207.00
2017-09-27T06:09:05.114Z,288.60
2017-09-27T06:10:05.138Z,366.70
2017-09-27T06:11:05.153Z,388.40
2017-09-27T06:12:05.179Z,355.70
2017-09-27T06:13:05.193Z,661.40
2017-09-27T06:14:05.208Z,555.70
2017-09-27T06:15:05.227Z,599.90
2017-09-27T06:16:05.253Z,572.30
2017-09-27T06:17:05.268Z,639.40
2017-09-27T06:18:05.284Z,472.30
2017-09-27T06:19:05.315Z,322.00
2017-09-27T06:20:05.342Z,401.20
2017-09-27T06:21:05.350Z,446.40
2017-09-27T06:22:05.359Z,419.10
2017-09-27T06:23:05.380Z,274.80
2017-09-27T06:24:05.397Z,377.70
2017-09-27T06:25:05.418Z,321.50
2017-09-27T06:26:05.439Z,440.90
2017-09-27T06:27:05.456Z,411.80
2017-09-27T06:28:05.474Z,385.50
2017-09-27T06:29:05.495Z,349.10
2017-09-27T06:30:05.519Z,371.80
2017-09-27T06:31:05.533Z,251.90
2017-09-27T06:32:05.553Z,383.60
2017-09-27T06:33:05.570Z,323.70
2017-09-27T06:34:05.589Z,301.80
2017-09-27T06:35:05.610Z,249.80
2017-09-27T06:36:05.628Z,276.30
2017-09-27T06:37:05.650Z,282.80
2017-09-27T06:38:05.667Z,215.30
2017-09-27T06:39:05.689Z,212.10
2017-09-27T06:40:05.708Z,216.80
2017-09-27T06:41:05.728Z,168.20
2017-09-27T06:42:05.748Z,113.30
2017-09-27T06:43:05.767Z,96.80
2017-09-27T06:44:05.789Z,160.80
2017-09-27T06:45:05.811Z,149.50
2017-09-27T06:46:05.829Z,113.80
2017-09-27T06:47:05.846Z,93.10
2017-09-27T06:48:05.874Z,132.40
2017-09-27T06:49:05.888Z,82.70
2017-09-27T06:50:05.909Z,87.00
2017-09-27T06:51:05.928Z,91.50
2017-09-27T06:52:05.951Z,80.90
2017-09-27T06:53:05.969Z,83.60
2017-09-27T06:54:05.992Z,71.30
2017-09-27T06:55:06.012Z,137.20
2017-09-27T06:56:06.032Z,115.30
2017-09-27T06:57:06.049Z,84.50
2017-09-27T06:58:06.076Z,64.80
2017-09-27T06:59:06.091Z,101.30
2017-09-27T07:00:06.112Z,114.00
2017-09-27T07:01:06.134Z,115.10
2017-09-27T07:02:06.153Z,88.60
2017-09-27T07:03:06.177Z,96.20
2017-09-27T07:04:06.192Z,178.90
2017-09-27T07:05:06.220Z,129.30
2017-09-27T07:06:06.236Z,96.50
2017-09-27T07:07:06.252Z,84.30
2017-09-27T07:08:06.274Z,89.00
2017-09-27T07:09:06.295Z,75.50
2017-09-27T07:10:06.316Z,119.20
2017-09-27T07:11:06.334Z,182.80
2017-09-27T07:12:06.356Z,92.40
2017-09-27T07:13:06.376Z,84.40
2017-09-27T07:14:06.395Z,102.40
2017-09-27T07:15:06.446Z,106.70
2017-09-27T07:16:06.438Z,131.30
2017-09-27T07:17:06.456Z,110.30
2017-09-27T07:18:06.479Z,143.80
2017-09-27T07:19:06.509Z,169.20
2017-09-27T07:20:06.518Z,124.10
2017-09-27T07:21:06.537Z,104.50
2017-09-27T07:22:06.562Z,84.70
2017-09-27T07:23:06.585Z,66.10
2017-09-27T07:24:06.600Z,70.50
2017-09-27T07:25:06.620Z,66.00
2017-09-27T07:26:06.640Z,64.60
2017-09-27T07:27:06.660Z,60.50
2017-09-27T07:28:06.681Z,67.10
2017-09-27T07:29:06.703Z,61.90
2017-09-27T07:30:06.722Z,57.30
2017-09-27T07:31:06.739Z,59.70
2017-09-27T07:32:06.762Z,52.20
2017-09-27T07:33:06.781Z,55.70
2017-09-27T07:34:06.803Z,56.70
2017-09-27T07:35:06.822Z,55.90
2017-09-27T07:36:06.841Z,55.40
2017-09-27T07:37:06.861Z,62.40
2017-09-27T07:38:06.882Z,65.90
2017-09-27T07:39:06.901Z,60.30
2017-09-27T07:40:06.921Z,74.70
2017-09-27T07:41:06.946Z,62.00
2017-09-27T07:42:06.961Z,58.60
2017-09-27T07:43:06.983Z,70.60
2017-09-27T07:44:07.000Z,66.70
2017-09-27T07:45:07.022Z,69.00
2017-09-27T07:46:07.042Z,69.10
2017-09-27T07:47:07.066Z,63.70
2017-09-27T07:48:07.086Z,60.00
2017-09-27T07:49:07.101Z,58.80
2017-09-27T07:50:07.123Z,61.70
2017-09-27T07:51:07.142Z,61.10
2017-09-27T07:52:07.161Z,50.10
2017-09-27T07:53:07.183Z,49.40
2017-09-27T07:54:07.204Z,48.30
2017-09-27T07:55:07.224Z,48.70
2017-09-27T07:56:07.245Z,50.20
2017-09-27T07:57:07.263Z,49.50
2017-09-27T07:58:07.282Z,49.80
2017-09-27T07:59:07.304Z,51.40
2017-09-27T08:00:07.323Z,49.40
2017-09-27T08:01:07.346Z,47.20
2017-09-27T08:02:07.363Z,45.80
2017-09-27T08:03:07.382Z,45.10
2017-09-27T08:04:07.405Z,49.20
2017-09-27T08:05:07.424Z,47.00
2017-09-27T08:06:07.445Z,47.10
2017-09-27T08:07:07.463Z,48.50
2017-09-27T08:08:07.486Z,44.70
2017-09-27T08:09:07.503Z,45.50
2017-09-27T08:10:07.525Z,49.90
2017-09-27T08:11:07.545Z,46.60
2017-09-27T08:12:07.565Z,50.00
2017-09-27T08:13:07.591Z,50.00
2017-09-27T08:14:07.607Z,42.10
2017-09-27T08:15:07.632Z,44.80
2017-09-27T08:16:07.650Z,41.20
2017-09-27T08:17:07.668Z,49.50
2017-09-27T08:18:07.687Z,49.90
2017-09-27T08:19:07.708Z,49.50
2017-09-27T08:20:07.726Z,47.90
2017-09-27T08:21:07.748Z,47.50
2017-09-27T08:22:07.770Z,48.40
2017-09-27T08:23:07.788Z,50.80
2017-09-27T08:24:07.810Z,48.30
2017-09-27T08:25:07.830Z,48.10
2017-09-27T08:26:07.850Z,47.30
2017-09-27T08:27:07.869Z,50.80
2017-09-27T08:28:07.895Z,50.80
2017-09-27T08:29:07.910Z,49.70
2017-09-27T08:30:07.932Z,46.90
2017-09-27T08:31:07.952Z,46.80
2017-09-27T08:32:07.971Z,47.60
2017-09-27T08:33:07.992Z,48.00
2017-09-27T08:34:08.009Z,48.20
2017-09-27T08:35:08.029Z,44.20
2017-09-27T08:36:08.050Z,46.80
2017-09-27T08:37:08.073Z,47.80
2017-09-27T08:38:08.091Z,49.30
2017-09-27T08:39:08.126Z,47.80
2017-09-27T08:40:08.133Z,42.80
2017-09-27T08:41:08.157Z,45.60
2017-09-27T08:42:08.172Z,44.10
2017-09-27T08:43:08.191Z,44.90
2017-09-27T08:44:08.217Z,46.80
2017-09-27T08:45:08.236Z,47.10
2017-09-27T08:46:08.259Z,42.80
2017-09-27T08:47:08.276Z,47.10
2017-09-27T08:48:08.294Z,47.10
2017-09-27T08:49:08.316Z,50.00
2017-09-27T08:50:08.337Z,46.30
2017-09-27T08:51:08.355Z,49.50
2017-09-27T08:52:08.378Z,47.80
2017-09-27T08:53:08.394Z,46.80
2017-09-27T08:54:08.421Z,46.60
2017-09-27T08:55:08.438Z,44.90
2017-09-27T08:56:08.456Z,43.80
2017-09-27T08:57:08.479Z,45.40
2017-09-27T08:58:08.498Z,46.90
2017-09-27T08:59:08.519Z,44.50
2017-09-27T09:00:08.539Z,47.50
2017-09-27T09:01:08.558Z,47.40
2017-09-27T09:02:08.583Z,46.30
2017-09-27T09:03:08.601Z,45.70
2017-09-27T09:04:08.624Z,48.40
2017-09-27T09:05:08.643Z,43.60
2017-09-27T09:06:08.661Z,46.20
2017-09-27T09:07:08.681Z,50.60
2017-09-27T09:08:08.706Z,50.60
2017-09-27T09:09:08.756Z,51.40
2017-09-27T09:10:08.744Z,55.30
2017-09-27T09:11:08.763Z,51.00
2017-09-27T09:12:08.794Z,49.90
2017-09-27T09:13:08.803Z,57.40
2017-09-27T09:14:08.826Z,54.70
2017-09-27T09:15:08.847Z,57.80
2017-09-27T09:16:08.865Z,53.60
2017-09-27T09:17:08.887Z,62.10
2017-09-27T09:18:08.909Z,63.40
2017-09-27T09:19:08.928Z,59.80
2017-09-27T09:20:08.946Z,58.70
2017-09-27T09:21:08.973Z,61.50
2017-09-27T09:22:08.992Z,61.40
2017-09-27T09:23:09.012Z,62.70
2017-09-27T09:24:09.037Z,61.20
2017-09-27T09:25:09.053Z,59.40
2017-09-27T09:26:09.075Z,63.50
2017-09-27T09:27:09.094Z,60.40
2017-09-27T09:28:09.121Z,64.00
2017-09-27T09:29:09.144Z,66.40
2017-09-27T09:30:09.159Z,63.90
2017-09-27T09:31:09.180Z,62.00
2017-09-27T09:32:09.201Z,65.30
2017-09-27T09:33:09.224Z,60.60
2017-09-27T09:34:09.245Z,58.90
2017-09-27T09:35:09.266Z,56.70
2017-09-27T09:36:09.292Z,60.50
2017-09-27T09:37:09.311Z,63.80
2017-09-27T09:38:09.328Z,56.60
2017-09-27T09:39:09.348Z,59.00
2017-09-27T09:40:09.372Z,58.40
2017-09-27T09:41:09.395Z,53.30
2017-09-27T09:42:09.418Z,55.40
2017-09-27T09:43:09.435Z,55.30
2017-09-27T09:44:09.460Z,56.80
2017-09-27T09:45:09.477Z,54.10
2017-09-27T09:46:09.498Z,52.50
2017-09-27T09:47:09.520Z,54.80
2017-09-27T09:48:09.542Z,49.90
2017-09-27T09:49:09.562Z,56.70
2017-09-27T09:50:09.588Z,50.40
2017-09-27T09:51:09.605Z,54.50
2017-09-27T09:52:09.628Z,48.10
2017-09-27T09:53:09.648Z,50.60
2017-09-27T09:54:09.672Z,51.20
2017-09-27T09:55:09.692Z,51.30
2017-09-27T09:56:09.716Z,49.40
2017-09-27T09:57:09.736Z,49.20
2017-09-27T09:58:09.763Z,50.10
2017-09-27T09:59:09.777Z,49.80
2017-09-27T10:00:09.800Z,50.90
2017-09-27T10:01:09.824Z,47.10
2017-09-27T10:02:09.845Z,57.10
2017-09-27T10:03:09.866Z,57.70
2017-09-27T10:04:09.887Z,49.50
2017-09-27T10:05:09.910Z,52.70
2017-09-27T10:06:09.931Z,46.90
2017-09-27T10:07:09.951Z,48.80
2017-09-27T10:08:09.976Z,48.70
2017-09-27T10:09:09.996Z,45.70
2017-09-27T10:10:10.019Z,46.50
2017-09-27T10:11:10.041Z,50.80
2017-09-27T10:12:10.061Z,45.00
2017-09-27T10:13:10.094Z,48.20
2017-09-27T10:14:10.107Z,51.00
2017-09-27T10:15:10.130Z,43.70
2017-09-27T10:16:10.165Z,45.80
2017-09-27T10:17:10.170Z,46.90
2017-09-27T10:18:10.195Z,51.00
2017-09-27T10:19:10.218Z,51.50
2017-09-27T10:20:10.246Z,48.60
2017-09-27T10:21:10.263Z,51.30
2017-09-27T10:22:10.281Z,53.10
2017-09-27T10:23:10.302Z,53.30
2017-09-27T10:24:10.336Z,52.30
2017-09-27T10:25:10.349Z,56.10
2017-09-27T10:26:10.368Z,49.30
2017-09-27T10:27:10.390Z,49.70
2017-09-27T10:28:10.413Z,53.00
2017-09-27T10:29:10.445Z,51.00
2017-09-27T10:30:10.459Z,52.50
2017-09-27T10:31:10.476Z,54.20
2017-09-27T10:32:10.504Z,50.40
2017-09-27T10:33:10.521Z,54.60
2017-09-27T10:34:10.545Z,50.70
2017-09-27T10:35:10.571Z,53.90
2017-09-27T10:36:10.592Z,47.00
2017-09-27T10:37:10.623Z,49.50
2017-09-27T10:38:10.633Z,49.20
2017-09-27T10:39:10.655Z,48.50
2017-09-27T10:40:10.677Z,47.90
2017-09-27T10:41:10.698Z,52.10
2017-09-27T10:42:10.722Z,50.30
2017-09-27T10:43:10.742Z,51.10
2017-09-27T10:44:10.773Z,48.60
2017-09-27T10:45:10.784Z,47.90
2017-09-27T10:46:10.810Z,49.50
2017-09-27T10:47:10.830Z,51.00
2017-09-27T10:48:10.852Z,50.40
2017-09-27T10:49:10.877Z,48.50
2017-09-27T10:50:10.897Z,44.80
2017-09-27T10:51:10.919Z,48.60
2017-09-27T10:52:10.946Z,47.10
2017-09-27T10:53:10.965Z,44.20
2017-09-27T10:54:10.986Z,48.30
2017-09-27T10:55:11.005Z,45.20
2017-09-27T10:56:11.030Z,48.10
2017-09-27T10:57:11.054Z,46.80
2017-09-27T10:58:11.076Z,44.10
2017-09-27T10:59:11.096Z,43.20
2017-09-27T11:00:11.118Z,46.70
2017-09-27T11:01:11.143Z,47.90
2017-09-27T11:02:11.164Z,44.20
2017-09-27T11:03:11.182Z,50.80
2017-09-27T11:04:11.203Z,48.40
2017-09-27T11:05:11.232Z,48.00
2017-09-27T11:06:11.249Z,47.30
2017-09-27T11:07:11.279Z,47.80
2017-09-27T11:08:11.295Z,47.90
2017-09-27T11:09:11.318Z,44.10
2017-09-27T11:10:11.343Z,48.20
2017-09-27T11:11:11.356Z,48.70
2017-09-27T11:12:11.380Z,47.40
2017-09-27T11:13:11.404Z,47.60
2017-09-27T11:14:11.422Z,49.40
2017-09-27T11:15:11.451Z,49.10
2017-09-27T11:16:11.471Z,46.90
2017-09-27T11:17:11.488Z,49.20
2017-09-27T11:18:11.508Z,45.30
2017-09-27T11:19:11.534Z,50.50
2017-09-27T11:20:11.552Z,47.80
2017-09-27T11:21:11.574Z,46.10
2017-09-27T11:22:11.596Z,44.80
2017-09-27T11:23:11.617Z,46.50
2017-09-27T11:24:11.641Z,43.10
2017-09-27T11:25:11.671Z,44.70
2017-09-27T11:26:11.684Z,47.80
2017-09-27T11:27:11.704Z,43.20
2017-09-27T11:28:11.725Z,45.20
2017-09-27T11:29:11.748Z,45.50
2017-09-27T11:30:11.771Z,43.80
2017-09-27T11:31:11.793Z,46.00
2017-09-27T11:32:11.815Z,46.60
2017-09-27T11:33:11.838Z,48.00
2017-09-27T11:34:11.862Z,49.90
2017-09-27T11:35:11.884Z,45.40
2017-09-27T11:36:11.912Z,48.40
2017-09-27T11:37:11.928Z,47.00
2017-09-27T11:38:11.951Z,49.70
2017-09-27T11:39:11.977Z,47.50
2017-09-27T11:40:11.993Z,54.40
2017-09-27T11:41:12.016Z,48.10
2017-09-27T11:42:12.041Z,49.30
2017-09-27T11:43:12.065Z,49.00
2017-09-27T11:44:12.083Z,49.80
2017-09-27T11:45:12.108Z,52.70
2017-09-27T11:46:12.129Z,51.30
2017-09-27T11:47:12.151Z,46.60
2017-09-27T11:48:12.175Z,47.20
2017-09-27T11:49:12.197Z,48.40
2017-09-27T11:50:12.220Z,48.30
2017-09-27T11:51:12.244Z,47.80
2017-09-27T11:52:12.267Z,43.70
2017-09-27T11:53:12.289Z,48.90
2017-09-27T11:54:12.310Z,47.50
2017-09-27T11:55:12.332Z,51.10
2017-09-27T11:56:12.356Z,51.60
2017-09-27T11:57:12.385Z,47.60
2017-09-27T11:58:12.405Z,46.00
2017-09-27T11:59:12.426Z,50.70
2017-09-27T12:00:12.448Z,50.20
2017-09-27T12:01:12.479Z,48.10
2017-09-27T12:02:12.489Z,44.10
2017-09-27T12:03:12.513Z,43.90
2017-09-27T12:04:12.536Z,44.80
2017-09-27T12:05:12.559Z,45.00
2017-09-27T12:06:12.580Z,42.20
2017-09-27T12:07:12.603Z,43.80
2017-09-27T12:08:12.626Z,50.10
2017-09-27T12:09:12.651Z,44.70
2017-09-27T12:10:12.681Z,45.80
2017-09-27T12:11:12.696Z,52.00
2017-09-27T12:12:12.719Z,47.10
2017-09-27T12:13:12.753Z,49.10
2017-09-27T12:14:12.765Z,50.80
2017-09-27T12:15:12.785Z,50.90
2017-09-27T12:16:12.811Z,49.40
2017-09-27T12:17:12.832Z,49.30
2017-09-27T12:18:12.855Z,47.80
2017-09-27T12:19:12.877Z,52.50
2017-09-27T12:20:12.899Z,50.60
2017-09-27T12:21:12.922Z,50.80
2017-09-27T12:22:12.945Z,46.60
2017-09-27T12:23:12.967Z,52.10
2017-09-27T12:24:12.991Z,73.80
2017-09-27T12:25:13.013Z,53.40
2017-09-27T12:26:13.037Z,52.40
2017-09-27T12:27:13.056Z,52.10
2017-09-27T12:28:13.088Z,55.90
2017-09-27T12:29:13.106Z,51.90
2017-09-27T12:30:13.127Z,47.00
2017-09-27T12:31:13.148Z,44.10
2017-09-27T12:32:13.171Z,42.80
2017-09-27T12:33:13.197Z,50.00
2017-09-27T12:34:13.216Z,44.30
2017-09-27T12:35:13.240Z,46.80
2017-09-27T12:36:13.261Z,47.60
2017-09-27T12:37:13.283Z,48.80
2017-09-27T12:38:13.308Z,48.10
2017-09-27T12:39:13.331Z,49.60
2017-09-27T12:40:13.351Z,49.60
2017-09-27T12:41:13.376Z,49.30
2017-09-27T12:42:13.405Z,47.10